createdAt,value
2018-04-06T00:04:26.340Z,1016.62
2018-04-06T00:09:26.048Z,1016.74
2018-04-06T00:14:21.936Z,1016.77
2018-04-06T00:19:18.380Z,1016.78
2018-04-06T00:24:18.557Z,1016.81
2018-04-06T00:29:15.150Z,1016.85
2018-04-06T00:34:11.836Z,1016.84
2018-04-06T00:39:07.206Z,1016.83
2018-04-06T00:44:02.990Z,1016.95
2018-04-06T00:49:01.455Z,1016.87
2018-04-06T00:54:01.615Z,1016.91
2018-04-06T00:59:01.072Z,1016.93
2018-04-06T01:03:56.000Z,1016.93
2018-04-06T01:08:52.954Z,1016.91
2018-04-06T01:13:49.671Z,1016.81
2018-04-06T01:18:49.029Z,1016.79
2018-04-06T01:23:45.059Z,1016.76
2018-04-06T01:28:40.556Z,1016.82
2018-04-06T01:33:41.217Z,1016.75
2018-04-06T01:38:35.965Z,1016.70
2018-04-06T01:43:31.815Z,1016.79
2018-04-06T01:48:28.366Z,1016.68
2018-04-06T01:53:24.587Z,1016.51
2018-04-06T01:58:21.098Z,1016.52
2018-04-06T02:03:16.484Z,1016.52
2018-04-06T02:08:17.091Z,1016.55
2018-04-06T02:13:15.628Z,1016.59
2018-04-06T02:18:10.233Z,1016.60
2018-04-06T02:23:06.725Z,1016.55
2018-04-06T02:28:08.025Z,1016.61
2018-04-06T02:33:07.474Z,1016.57
2018-04-06T02:38:01.730Z,1016.53
2018-04-06T02:42:58.848Z,1016.49
2018-04-06T02:47:55.241Z,1016.55
2018-04-06T02:52:55.445Z,1016.52
2018-04-06T02:57:51.370Z,1016.60
2018-04-06T03:02:50.945Z,1016.48
2018-04-06T03:07:47.646Z,1016.56
2018-04-06T03:12:47.279Z,1016.68
2018-04-06T03:17:46.252Z,1016.67
2018-04-06T03:22:41.127Z,1016.80
2018-04-06T03:27:41.621Z,1016.79
2018-04-06T03:32:40.487Z,1016.78
2018-04-06T03:37:35.237Z,1016.80
2018-04-06T03:42:35.010Z,1016.82
2018-04-06T03:47:30.084Z,1016.82
2018-04-06T03:52:30.403Z,1016.66
2018-04-06T03:57:29.986Z,1016.64
2018-04-06T04:02:29.607Z,1016.75
2018-04-06T04:07:29.763Z,1016.71
2018-04-06T04:12:29.308Z,1016.67
2018-04-06T04:17:27.685Z,1016.76
2018-04-06T04:22:22.373Z,1016.66
2018-04-06T04:27:23.006Z,1016.65
2018-04-06T04:32:18.344Z,1016.50
2018-04-06T04:37:14.545Z,1016.57
2018-04-06T04:42:13.873Z,1016.68
2018-04-06T04:47:13.918Z,1016.72
2018-04-06T04:52:13.639Z,1016.84
2018-04-06T04:57:09.416Z,1016.78
2018-04-06T05:02:08.798Z,1016.73
2018-04-06T05:07:04.555Z,1016.79
2018-04-06T05:12:00.000Z,1016.78
2018-04-06T05:16:59.619Z,1016.75
2018-04-06T05:21:58.365Z,1016.65
2018-04-06T05:26:57.938Z,1016.79
2018-04-06T05:31:52.674Z,1016.67
2018-04-06T05:36:48.597Z,1016.56
2018-04-06T05:41:44.953Z,1016.60
2018-04-06T05:46:40.218Z,1016.63
2018-04-06T05:51:41.941Z,1016.60
2018-04-06T05:56:36.499Z,1016.75
2018-04-06T06:01:36.442Z,1016.78
2018-04-06T06:06:31.948Z,1016.87
2018-04-06T06:11:32.792Z,1016.93
2018-04-06T06:16:27.737Z,1016.99
2018-04-06T06:21:23.728Z,1016.96
2018-04-06T06:26:20.246Z,1016.87
2018-04-06T06:31:20.523Z,1016.93
2018-04-06T06:36:19.893Z,1016.88
2018-04-06T06:41:20.048Z,1016.85
2018-04-06T06:46:19.007Z,1016.80
2018-04-06T06:51:19.106Z,1016.76
2018-04-06T06:56:19.259Z,1016.63
2018-04-06T07:01:19.110Z,1016.62
2018-04-06T07:06:14.346Z,1016.57
2018-04-06T07:11:11.209Z,1016.60
2018-04-06T07:16:10.875Z,1016.51
2018-04-06T07:21:10.627Z,1016.47
2018-04-06T07:26:07.243Z,1016.43
2018-04-06T07:31:04.369Z,1016.38
2018-04-06T07:36:01.225Z,1016.27
2018-04-06T07:41:02.340Z,1016.18
2018-04-06T07:45:59.122Z,1016.24
2018-04-06T07:51:00.037Z,1016.21
2018-04-06T07:55:57.250Z,1016.26
2018-04-06T08:00:59.888Z,1016.33
2018-04-06T08:05:56.496Z,1016.28
2018-04-06T08:10:58.530Z,1016.26
2018-04-06T08:16:02.920Z,1016.33
2018-04-06T08:21:01.635Z,1016.43
2018-04-06T08:25:58.488Z,1016.33
2018-04-06T08:30:56.207Z,1016.29
2018-04-06T08:35:54.132Z,1016.24
2018-04-06T08:40:53.716Z,1016.18
2018-04-06T08:45:53.747Z,1016.16
2018-04-06T08:50:53.769Z,1016.19
2018-04-06T08:55:51.631Z,1016.21
2018-04-06T09:00:46.601Z,1016.10
2018-04-06T09:05:48.971Z,1016.03
2018-04-06T09:10:47.865Z,1015.91
2018-04-06T09:15:43.778Z,1015.91
2018-04-06T09:20:43.315Z,1015.79
2018-04-06T09:25:39.503Z,1015.98
2018-04-06T09:35:43.106Z,1016.43
2018-04-06T09:40:42.770Z,1015.97
2018-04-06T09:45:44.038Z,1016.61
2018-04-06T09:50:40.086Z,1015.87
2018-04-06T09:55:40.919Z,1015.89
2018-04-06T10:00:37.046Z,1015.80
2018-04-06T10:05:33.709Z,1015.49
2018-04-06T10:10:29.769Z,1015.60
2018-04-06T10:15:33.492Z,1015.82
2018-04-06T10:20:31.281Z,1015.92
2018-04-06T10:25:33.422Z,1016.22
2018-04-06T10:30:28.986Z,1016.00
2018-04-06T10:35:26.543Z,1015.68
2018-04-06T10:40:23.549Z,1015.15
2018-04-06T10:45:24.364Z,1015.10
2018-04-06T10:50:19.854Z,1015.00
2018-04-06T10:55:19.996Z,1014.96
2018-04-06T11:00:15.196Z,1014.89
2018-04-06T11:05:11.570Z,1014.87
2018-04-06T11:10:09.314Z,1014.72
2018-04-06T11:15:10.401Z,1014.73
2018-04-06T11:20:10.914Z,1014.70
2018-04-06T11:25:10.238Z,1014.55
2018-04-06T11:30:11.704Z,1014.51
2018-04-06T11:35:13.415Z,1014.28
2018-04-06T11:40:15.162Z,1014.22
2018-04-06T11:45:16.456Z,1014.17
2018-04-06T11:50:11.501Z,1014.20
2018-04-06T11:55:12.418Z,1014.08
2018-04-06T12:00:07.946Z,1013.99
2018-04-06T12:05:09.414Z,1013.98
2018-04-06T12:10:09.216Z,1013.91
2018-04-06T12:15:08.947Z,1013.80
2018-04-06T12:20:07.886Z,1013.64
2018-04-06T12:25:03.896Z,1013.65
2018-04-06T12:30:03.716Z,1013.52
2018-04-06T12:34:58.358Z,1013.53
2018-04-06T12:39:53.493Z,1013.36
2018-04-06T12:44:52.166Z,1013.38
2018-04-06T12:49:47.809Z,1013.30
2018-04-06T12:54:44.954Z,1013.32
2018-04-06T12:59:45.027Z,1013.08
2018-04-06T13:04:43.310Z,1013.00
2018-04-06T13:09:41.934Z,1012.83
2018-04-06T13:14:42.754Z,1012.82
2018-04-06T13:19:42.251Z,1012.72
2018-04-06T13:24:42.219Z,1012.78
2018-04-06T13:29:44.431Z,1012.50
2018-04-06T13:34:44.996Z,1012.53
2018-04-06T13:39:45.211Z,1012.43
2018-04-06T13:44:45.443Z,1012.25
2018-04-06T13:49:40.691Z,1012.15
2018-04-06T13:54:40.917Z,1012.04
2018-04-06T13:59:34.833Z,1012.02
2018-04-06T14:04:30.264Z,1011.75
2018-04-06T14:09:26.316Z,1011.64
2018-04-06T14:14:23.917Z,1011.53
2018-04-06T14:19:24.670Z,1011.56
2018-04-06T14:24:23.681Z,1011.39
2018-04-06T14:29:19.588Z,1011.38
2018-04-06T14:34:21.169Z,1011.24
2018-04-06T14:39:16.066Z,1011.20
2018-04-06T14:44:13.205Z,1011.08
2018-04-06T14:49:13.055Z,1011.08
2018-04-06T14:54:09.349Z,1011.00
2018-04-06T14:59:09.422Z,1010.85
2018-04-06T15:04:08.485Z,1010.83
2018-04-06T15:09:03.987Z,1010.70
2018-04-06T15:14:00.804Z,1010.68
2018-04-06T15:19:00.483Z,1010.75
2018-04-06T15:23:59.923Z,1010.73
2018-04-06T15:28:54.544Z,1010.68
2018-04-06T15:33:54.462Z,1010.61
2018-04-06T15:38:49.452Z,1010.49
2018-04-06T15:48:45.270Z,1010.40
2018-04-06T15:53:45.971Z,1010.37
2018-04-06T15:58:45.653Z,1010.30
2018-04-06T16:03:41.558Z,1010.33
2018-04-06T16:08:38.082Z,1010.22
2018-04-06T16:13:34.973Z,1010.16
2018-04-06T16:18:35.141Z,1010.17
2018-04-06T16:23:34.900Z,1010.06
2018-04-06T16:28:34.111Z,1010.04
2018-04-06T16:33:29.692Z,1009.96
2018-04-06T16:38:25.375Z,1009.99
2018-04-06T16:43:21.184Z,1009.99
2018-04-06T16:48:17.967Z,1009.95
2018-04-06T16:53:18.791Z,1009.91
2018-04-06T16:58:13.222Z,1009.91
2018-04-06T17:03:13.817Z,1009.89
2018-04-06T17:08:08.464Z,1009.96
2018-04-06T17:13:04.348Z,1009.87
2018-04-06T17:18:01.302Z,1009.94
2018-04-06T17:22:56.544Z,1009.92
2018-04-06T17:27:52.460Z,1009.97
2018-04-06T17:32:49.686Z,1009.96
2018-04-06T17:37:45.099Z,1009.84
2018-04-06T17:42:40.792Z,1009.91
2018-04-06T17:47:40.551Z,1009.89
2018-04-06T17:52:36.429Z,1009.93
2018-04-06T17:57:33.647Z,1009.94
2018-04-06T18:02:30.229Z,1009.97
2018-04-06T18:07:29.570Z,1010.03
2018-04-06T18:12:25.095Z,1009.99
2018-04-06T18:17:25.590Z,1009.91
2018-04-06T18:22:21.615Z,1009.89
2018-04-06T18:27:20.830Z,1009.98
2018-04-06T18:32:20.894Z,1010.07
2018-04-06T18:37:15.555Z,1010.03
2018-04-06T18:42:16.597Z,1010.02
2018-04-06T18:47:12.431Z,1010.10
2018-04-06T18:52:08.573Z,1010.04
2018-04-06T18:57:05.183Z,1009.90
2018-04-06T19:02:04.792Z,1009.91
2018-04-06T19:07:01.847Z,1009.74
2018-04-06T19:12:02.208Z,1009.88
2018-04-06T19:17:01.390Z,1009.95
2018-04-06T19:22:00.108Z,1009.84
2018-04-06T19:32:00.494Z,1009.76
2018-04-06T19:36:56.509Z,1009.59
2018-04-06T19:41:56.323Z,1009.46
2018-04-06T19:46:55.272Z,1009.44
2018-04-06T19:51:51.910Z,1009.42
2018-04-06T19:56:47.560Z,1009.47
2018-04-06T20:01:49.473Z,1009.23
2018-04-06T20:06:43.878Z,1009.33
2018-04-06T20:11:39.366Z,1009.21
2018-04-06T20:16:39.100Z,1009.11
2018-04-06T20:21:38.052Z,1009.09
2018-04-06T20:26:37.035Z,1008.91
2018-04-06T20:31:31.452Z,1008.83
2018-04-06T20:36:32.420Z,1008.85
2018-04-06T20:41:27.267Z,1008.81
2018-04-06T20:46:26.854Z,1008.76
2018-04-06T20:51:21.750Z,1008.86
2018-04-06T20:56:21.532Z,1008.75
2018-04-06T21:01:17.621Z,1008.61
2018-04-06T21:06:13.196Z,1008.65
2018-04-06T21:11:13.235Z,1008.69
2018-04-06T21:16:08.036Z,1008.61
2018-04-06T21:21:07.906Z,1008.55
2018-04-06T21:26:03.108Z,1008.59
2018-04-06T21:30:59.520Z,1008.48
2018-04-06T21:35:56.336Z,1008.43
2018-04-06T21:40:56.950Z,1008.38
2018-04-06T21:45:52.853Z,1008.33
2018-04-06T21:50:48.202Z,1008.35
2018-04-06T21:55:43.989Z,1008.32
2018-04-06T22:00:40.560Z,1008.26
2018-04-06T22:05:37.338Z,1008.25
2018-04-06T22:10:33.481Z,1008.21
2018-04-06T22:15:34.411Z,1008.12
2018-04-06T22:20:29.028Z,1008.07
2018-04-06T22:25:24.831Z,1008.07
2018-04-06T22:30:24.352Z,1008.09
2018-04-06T22:35:19.293Z,1008.03
2018-04-06T22:40:19.008Z,1007.99
2018-04-06T22:45:17.811Z,1008.02
2018-04-06T22:50:17.657Z,1007.85
2018-04-06T22:55:16.640Z,1007.88
2018-04-06T23:00:15.598Z,1007.93
2018-04-06T23:05:14.990Z,1007.81
2018-04-06T23:10:10.632Z,1007.76
2018-04-06T23:15:09.974Z,1007.84
2018-04-06T23:20:06.467Z,1007.87
2018-04-06T23:25:05.868Z,1007.84
2018-04-06T23:30:01.763Z,1007.91
2018-04-06T23:34:58.229Z,1007.93
2018-04-06T23:39:58.294Z,1007.84
2018-04-06T23:44:53.369Z,1007.83
2018-04-06T23:49:50.717Z,1007.77
2018-04-06T23:54:49.992Z,1007.69
2018-04-06T23:59:49.598Z,1007.49
